Antofagasta, Chile
Current Conditions -  °F | °C
As of 6:00 AM on Wednesday 26 Nov 2014 (Local Time) from SCFA Reporting Station
Overcast Overcast  
Wind Chill: 61°   Ceiling: 1700
Heat Index: 61°   Visibility: 6mi
Dew Point: 50°   Wind: 5mph
Humidity: 68%   Direction: 240°WSW
Pressure: 29.91"   Gusts: NA
Location:  23.65°S, 70.39°W
Report Text: SCFA 261000Z 24004KT 9999 OVC017 16/10 Q1013 NOSIG
Loading
Personal Weather Stations






























Interactive Weather Map New forecast layout! Learn more

10-Day Weather Forecast

Advertisements
Track Severe Weather on mobile